sensor_id;sensor_type;location;lat;lon;timestamp;pressure;altitude;pressure_sealevel;temperature;humidity
54918;BME280;40818;50.562;7.454;2023-04-19T00:04:19;98538.00;;;7.93;100.00
54918;BME280;40818;50.562;7.454;2023-04-19T00:14:22;98527.84;;;7.88;100.00
54918;BME280;40818;50.562;7.454;2023-04-19T00:24:28;98536.56;;;7.85;100.00
54918;BME280;40818;50.562;7.454;2023-04-19T00:34:34;98527.09;;;7.64;100.00
54918;BME280;40818;50.562;7.454;2023-04-19T00:44:41;98518.69;;;7.38;100.00
54918;BME280;40818;50.562;7.454;2023-04-19T00:54:44;98517.41;;;7.26;100.00
54918;BME280;40818;50.562;7.454;2023-04-19T01:04:50;98514.53;;;7.12;100.00
54918;BME280;40818;50.562;7.454;2023-04-19T01:14:54;98512.50;;;7.20;100.00
54918;BME280;40818;50.562;7.454;2023-04-19T01:25:00;98494.97;;;7.06;100.00
54918;BME280;40818;50.562;7.454;2023-04-19T01:35:05;98492.19;;;6.89;100.00
54918;BME280;40818;50.562;7.454;2023-04-19T01:45:13;98482.59;;;6.92;100.00
54918;BME280;40818;50.562;7.454;2023-04-19T01:55:16;98477.66;;;6.86;100.00
54918;BME280;40818;50.562;7.454;2023-04-19T02:05:23;98463.94;;;6.62;100.00
54918;BME280;40818;50.562;7.454;2023-04-19T02:15:27;98456.28;;;6.60;100.00
54918;BME280;40818;50.562;7.454;2023-04-19T02:25:33;98448.47;;;6.62;100.00
54918;BME280;40818;50.562;7.454;2023-04-19T02:35:37;98445.13;;;6.60;100.00
54918;BME280;40818;50.562;7.454;2023-04-19T02:45:43;98447.44;;;6.66;100.00
54918;BME280;40818;50.562;7.454;2023-04-19T02:55:47;98452.78;;;6.61;100.00
54918;BME280;40818;50.562;7.454;2023-04-19T03:05:56;98442.59;;;6.58;100.00
54918;BME280;40818;50.562;7.454;2023-04-19T03:16:00;98440.78;;;6.60;100.00
54918;BME280;40818;50.562;7.454;2023-04-19T03:26:08;98442.47;;;6.61;100.00
54918;BME280;40818;50.562;7.454;2023-04-19T03:36:16;98432.84;;;6.65;100.00
54918;BME280;40818;50.562;7.454;2023-04-19T03:46:23;98428.31;;;6.72;100.00
54918;BME280;40818;50.562;7.454;2023-04-19T03:56:31;98422.25;;;6.73;100.00
54918;BME280;40818;50.562;7.454;2023-04-19T04:06:38;98417.28;;;6.68;100.00
54918;BME280;40818;50.562;7.454;2023-04-19T04:16:41;98414.94;;;6.62;100.00
54918;BME280;40818;50.562;7.454;2023-04-19T04:26:48;98427.06;;;6.60;100.00
54918;BME280;40818;50.562;7.454;2023-04-19T04:37:01;98425.56;;;6.54;100.00
54918;BME280;40818;50.562;7.454;2023-04-19T04:47:11;98435.44;;;6.65;100.00
54918;BME280;40818;50.562;7.454;2023-04-19T04:57:21;98437.56;;;6.77;100.00
54918;BME280;40818;50.562;7.454;2023-04-19T05:07:27;98436.13;;;6.92;100.00
54918;BME280;40818;50.562;7.454;2023-04-19T05:17:32;98434.56;;;7.10;100.00
54918;BME280;40818;50.562;7.454;2023-04-19T05:27:39;98426.31;;;7.23;100.00
54918;BME280;40818;50.562;7.454;2023-04-19T05:37:43;98433.09;;;7.46;100.00
54918;BME280;40818;50.562;7.454;2023-04-19T05:47:49;98414.94;;;7.68;100.00
54918;BME280;40818;50.562;7.454;2023-04-19T05:58:31;98420.47;;;7.81;100.00
54918;BME280;40818;50.562;7.454;2023-04-19T06:08:38;98417.78;;;8.03;100.00
54918;BME280;40818;50.562;7.454;2023-04-19T06:18:43;98428.78;;;8.27;100.00
54918;BME280;40818;50.562;7.454;2023-04-19T06:28:50;98433.56;;;8.35;100.00
54918;BME280;40818;50.562;7.454;2023-04-19T06:38:53;98428.00;;;8.44;100.00
54918;BME280;40818;50.562;7.454;2023-04-19T06:48:59;98423.53;;;8.29;100.00
54918;BME280;40818;50.562;7.454;2023-04-19T06:59:02;98421.09;;;8.64;100.00
54918;BME280;40818;50.562;7.454;2023-04-19T07:09:08;98408.22;;;8.99;100.00
54918;BME280;40818;50.562;7.454;2023-04-19T07:19:12;98399.75;;;9.49;100.00
54918;BME280;40818;50.562;7.454;2023-04-19T07:29:21;98405.31;;;10.42;100.00
54918;BME280;40818;50.562;7.454;2023-04-19T07:39:24;98389.63;;;10.28;100.00
54918;BME280;40818;50.562;7.454;2023-04-19T07:49:32;98396.66;;;11.36;97.55
54918;BME280;40818;50.562;7.454;2023-04-19T07:59:37;98383.09;;;12.75;90.57
54918;BME280;40818;50.562;7.454;2023-04-19T08:09:43;98369.25;;;13.27;81.46
54918;BME280;40818;50.562;7.454;2023-04-19T08:19:46;98372.84;;;13.52;81.76
54918;BME280;40818;50.562;7.454;2023-04-19T08:29:53;98354.06;;;14.36;75.52
54918;BME280;40818;50.562;7.454;2023-04-19T08:39:57;98359.88;;;15.25;66.04
54918;BME280;40818;50.562;7.454;2023-04-19T08:50:04;98361.31;;;14.19;67.43
54918;BME280;40818;50.562;7.454;2023-04-19T09:00:09;98345.09;;;15.12;64.89
54918;BME280;40818;50.562;7.454;2023-04-19T09:10:18;98340.22;;;13.19;70.65
54918;BME280;40818;50.562;7.454;2023-04-19T09:20:35;98337.22;;;14.03;65.54
54918;BME280;40818;50.562;7.454;2023-04-19T09:30:41;98324.69;;;14.93;67.07
54918;BME280;40818;50.562;7.454;2023-04-19T09:40:44;98338.47;;;15.31;62.51
54918;BME280;40818;50.562;7.454;2023-04-19T09:50:54;98320.31;;;14.94;64.04
54918;BME280;40818;50.562;7.454;2023-04-19T10:00:58;98309.44;;;13.52;63.62
54918;BME280;40818;50.562;7.454;2023-04-19T10:11:05;98318.53;;;14.09;65.17
54918;BME280;40818;50.562;7.454;2023-04-19T10:21:10;98306.78;;;14.64;55.01
54918;BME280;40818;50.562;7.454;2023-04-19T10:31:18;98301.44;;;15.01;56.44
54918;BME280;40818;50.562;7.454;2023-04-19T10:41:23;98294.50;;;15.59;54.24
54918;BME280;40818;50.562;7.454;2023-04-19T10:51:32;98286.47;;;14.68;50.44
54918;BME280;40818;50.562;7.454;2023-04-19T11:01:37;98272.72;;;15.24;52.89
54918;BME280;40818;50.562;7.454;2023-04-19T11:11:45;98257.63;;;16.51;47.36
54918;BME280;40818;50.562;7.454;2023-04-19T11:21:48;98248.69;;;16.53;43.35
54918;BME280;40818;50.562;7.454;2023-04-19T11:31:54;98234.13;;;17.03;39.96
54918;BME280;40818;50.562;7.454;2023-04-19T11:41:58;98236.47;;;15.42;37.34
54918;BME280;40818;50.562;7.454;2023-04-19T11:52:05;98220.19;;;15.16;36.00
54918;BME280;40818;50.562;7.454;2023-04-19T12:02:10;98221.13;;;15.26;36.15
54918;BME280;40818;50.562;7.454;2023-04-19T12:12:30;98209.97;;;15.47;34.40
54918;BME280;40818;50.562;7.454;2023-04-19T12:22:33;98207.47;;;15.23;31.17
54918;BME280;40818;50.562;7.454;2023-04-19T12:32:39;98187.81;;;15.06;33.50
54918;BME280;40818;50.562;7.454;2023-04-19T12:42:43;98178.69;;;15.23;33.82
54918;BME280;40818;50.562;7.454;2023-04-19T12:52:49;98179.88;;;15.30;30.09
54918;BME280;40818;50.562;7.454;2023-04-19T13:02:53;98167.06;;;14.57;30.08
54918;BME280;40818;50.562;7.454;2023-04-19T13:12:59;98147.34;;;14.17;32.58
54918;BME280;40818;50.562;7.454;2023-04-19T13:23:02;98118.06;;;14.83;31.60
54918;BME280;40818;50.562;7.454;2023-04-19T13:33:08;98121.41;;;14.74;28.42
54918;BME280;40818;50.562;7.454;2023-04-19T13:43:12;98112.44;;;15.56;30.93
54918;BME280;40818;50.562;7.454;2023-04-19T13:53:18;98107.72;;;14.71;31.44
54918;BME280;40818;50.562;7.454;2023-04-19T14:03:21;98087.25;;;15.44;31.48
54918;BME280;40818;50.562;7.454;2023-04-19T14:13:29;98078.97;;;15.16;27.98
54918;BME280;40818;50.562;7.454;2023-04-19T14:23:32;98101.06;;;14.66;27.41
54918;BME280;40818;50.562;7.454;2023-04-19T14:33:38;98078.53;;;13.94;29.62
54918;BME280;40818;50.562;7.454;2023-04-19T14:43:41;98063.00;;;14.28;29.84
54918;BME280;40818;50.562;7.454;2023-04-19T14:53:48;98056.78;;;13.34;32.33
54918;BME280;40818;50.562;7.454;2023-04-19T15:03:51;98055.78;;;12.48;33.50
54918;BME280;40818;50.562;7.454;2023-04-19T15:13:57;98041.53;;;12.67;33.71
54918;BME280;40818;50.562;7.454;2023-04-19T15:24:01;98052.66;;;12.69;33.51
54918;BME280;40818;50.562;7.454;2023-04-19T15:34:07;98056.28;;;12.15;33.65
54918;BME280;40818;50.562;7.454;2023-04-19T15:44:10;98058.25;;;11.71;32.66
54918;BME280;40818;50.562;7.454;2023-04-19T15:54:16;98046.13;;;11.44;30.32
54918;BME280;40818;50.562;7.454;2023-04-19T16:04:21;98051.44;;;11.55;32.20
54918;BME280;40818;50.562;7.454;2023-04-19T16:14:27;98044.25;;;11.04;33.84
54918;BME280;40818;50.562;7.454;2023-04-19T16:24:31;98067.53;;;10.77;34.62
54918;BME280;40818;50.562;7.454;2023-04-19T16:34:37;98052.53;;;10.53;36.21
54918;BME280;40818;50.562;7.454;2023-04-19T16:44:41;98062.47;;;10.16;37.10
54918;BME280;40818;50.562;7.454;2023-04-19T16:54:47;98053.44;;;9.93;36.59
54918;BME280;40818;50.562;7.454;2023-04-19T17:04:50;98053.72;;;9.72;36.85
54918;BME280;40818;50.562;7.454;2023-04-19T17:14:56;98050.91;;;9.61;36.62
54918;BME280;40818;50.562;7.454;2023-04-19T17:25:00;98058.66;;;9.47;36.50
54918;BME280;40818;50.562;7.454;2023-04-19T17:35:07;98065.91;;;9.24;37.39
54918;BME280;40818;50.562;7.454;2023-04-19T17:45:11;98064.50;;;9.02;37.50
54918;BME280;40818;50.562;7.454;2023-04-19T17:55:17;98068.38;;;8.78;37.70
54918;BME280;40818;50.562;7.454;2023-04-19T18:05:20;98059.78;;;8.77;37.95
54918;BME280;40818;50.562;7.454;2023-04-19T18:15:27;98062.41;;;8.60;37.21
54918;BME280;40818;50.562;7.454;2023-04-19T18:25:31;98070.94;;;8.44;37.49
54918;BME280;40818;50.562;7.454;2023-04-19T18:35:38;98075.53;;;8.22;38.61
54918;BME280;40818;50.562;7.454;2023-04-19T18:45:43;98077.69;;;8.13;39.19
54918;BME280;40818;50.562;7.454;2023-04-19T18:55:49;98090.50;;;7.97;39.29
54918;BME280;40818;50.562;7.454;2023-04-19T19:05:52;98096.03;;;7.72;40.53
54918;BME280;40818;50.562;7.454;2023-04-19T19:15:59;98108.94;;;7.55;41.05
54918;BME280;40818;50.562;7.454;2023-04-19T19:26:03;98108.94;;;7.35;41.44
54918;BME280;40818;50.562;7.454;2023-04-19T19:36:09;98107.28;;;7.15;41.80
54918;BME280;40818;50.562;7.454;2023-04-19T19:46:12;98116.13;;;6.91;42.41
54918;BME280;40818;50.562;7.454;2023-04-19T19:56:18;98112.56;;;6.74;43.17
54918;BME280;40818;50.562;7.454;2023-04-19T20:06:23;98125.75;;;6.47;43.98
54918;BME280;40818;50.562;7.454;2023-04-19T20:16:29;98128.19;;;6.30;44.39
54918;BME280;40818;50.562;7.454;2023-04-19T20:26:33;98130.09;;;6.04;45.62
54918;BME280;40818;50.562;7.454;2023-04-19T20:36:39;98129.53;;;5.96;45.86
54918;BME280;40818;50.562;7.454;2023-04-19T20:46:45;98124.88;;;5.84;46.94
54918;BME280;40818;50.562;7.454;2023-04-19T20:56:58;98133.22;;;5.68;47.87
54918;BME280;40818;50.562;7.454;2023-04-19T21:07:03;98126.63;;;5.61;48.00
54918;BME280;40818;50.562;7.454;2023-04-19T21:17:09;98124.41;;;5.52;48.83
54918;BME280;40818;50.562;7.454;2023-04-19T21:27:13;98115.47;;;5.38;49.62
54918;BME280;40818;50.562;7.454;2023-04-19T21:37:19;98096.34;;;5.22;49.99
54918;BME280;40818;50.562;7.454;2023-04-19T21:47:22;98093.81;;;5.20;49.88
54918;BME280;40818;50.562;7.454;2023-04-19T21:57:29;98095.25;;;5.05;51.59
54918;BME280;40818;50.562;7.454;2023-04-19T22:07:34;98084.41;;;4.97;51.80
54918;BME280;40818;50.562;7.454;2023-04-19T22:17:42;98080.59;;;4.84;53.51
54918;BME280;40818;50.562;7.454;2023-04-19T22:27:45;98062.84;;;4.77;53.56
54918;BME280;40818;50.562;7.454;2023-04-19T22:37:52;98056.28;;;4.69;53.33
54918;BME280;40818;50.562;7.454;2023-04-19T22:47:55;98054.19;;;4.55;53.68
54918;BME280;40818;50.562;7.454;2023-04-19T22:58:01;98027.16;;;4.44;53.67
54918;BME280;40818;50.562;7.454;2023-04-19T23:08:04;98008.81;;;4.30;54.12
54918;BME280;40818;50.562;7.454;2023-04-19T23:18:11;97995.50;;;4.19;56.41
54918;BME280;40818;50.562;7.454;2023-04-19T23:28:16;97983.03;;;4.08;56.81
54918;BME280;40818;50.562;7.454;2023-04-19T23:38:22;97975.59;;;4.00;58.42
54918;BME280;40818;50.562;7.454;2023-04-19T23:48:25;97966.13;;;4.02;58.33
54918;BME280;40818;50.562;7.454;2023-04-19T23:58:31;97956.72;;;4.01;59.69
